createdAt,value
2019-03-25T00:00:21.354Z,83.2
2019-03-25T00:01:22.767Z,83.1
2019-03-25T00:02:24.188Z,83.9
2019-03-25T00:03:25.605Z,83.5
2019-03-25T00:04:27.003Z,84.0
2019-03-25T00:05:28.388Z,83.9
2019-03-25T00:06:29.938Z,83.9
2019-03-25T00:07:31.333Z,84.4
2019-03-25T00:08:32.733Z,84.3
2019-03-25T00:09:34.123Z,83.8
2019-03-25T00:10:35.551Z,83.8
2019-03-25T00:11:37.004Z,84.2
2019-03-25T00:12:38.403Z,84.2
2019-03-25T00:13:39.789Z,84.1
2019-03-25T00:14:41.209Z,84.4
2019-03-25T00:15:42.627Z,83.9
2019-03-25T00:16:44.055Z,83.8
2019-03-25T00:17:45.459Z,83.2
2019-03-25T00:18:46.896Z,83.2
2019-03-25T00:19:48.327Z,83.2
2019-03-25T00:20:49.715Z,82.6
2019-03-25T00:21:51.126Z,82.7
2019-03-25T00:22:52.529Z,82.8
2019-03-25T00:23:53.932Z,82.9
2019-03-25T00:24:55.334Z,82.7
2019-03-25T00:25:56.740Z,82.9
2019-03-25T00:26:58.168Z,82.2
2019-03-25T00:27:59.584Z,82.3
2019-03-25T00:29:00.973Z,82.0
2019-03-25T00:30:02.413Z,82.1
2019-03-25T00:31:03.812Z,82.1
2019-03-25T00:32:05.224Z,81.9
2019-03-25T00:33:06.644Z,82.1
2019-03-25T00:34:08.085Z,82.6
2019-03-25T00:35:09.486Z,82.2
2019-03-25T00:36:10.899Z,82.5
2019-03-25T00:37:12.290Z,82.2
2019-03-25T00:38:13.693Z,82.2
2019-03-25T00:39:15.130Z,82.0
2019-03-25T00:40:16.560Z,81.9
2019-03-25T00:41:17.955Z,82.1
2019-03-25T00:42:19.376Z,81.9
2019-03-25T00:43:20.794Z,82.1
2019-03-25T00:44:22.298Z,81.9
2019-03-25T00:45:23.704Z,82.1
2019-03-25T00:46:25.256Z,82.4
2019-03-25T00:47:26.674Z,83.0
2019-03-25T00:48:28.063Z,83.0
2019-03-25T00:49:29.479Z,82.5
2019-03-25T00:50:30.873Z,83.4
2019-03-25T00:51:32.285Z,83.2
2019-03-25T00:52:33.711Z,84.0
2019-03-25T00:53:35.125Z,84.4
2019-03-25T00:54:36.524Z,84.6
2019-03-25T00:55:37.916Z,85.1
2019-03-25T00:56:39.343Z,85.3
2019-03-25T00:57:40.864Z,84.5
2019-03-25T00:58:42.188Z,84.6
2019-03-25T00:59:43.582Z,84.5
2019-03-25T01:00:45.002Z,84.5
2019-03-25T01:01:46.391Z,84.9
2019-03-25T01:02:47.804Z,85.3
2019-03-25T01:03:49.198Z,85.0
2019-03-25T01:04:50.621Z,84.6
2019-03-25T01:05:52.036Z,84.7
2019-03-25T01:06:53.448Z,83.9
2019-03-25T01:07:54.835Z,84.4
2019-03-25T01:08:56.248Z,83.8
2019-03-25T01:09:57.678Z,83.8
2019-03-25T01:10:59.080Z,84.1
2019-03-25T01:12:00.510Z,83.9
2019-03-25T01:13:01.908Z,83.7
2019-03-25T01:14:03.355Z,83.6
2019-03-25T01:15:04.762Z,83.1
2019-03-25T01:16:06.177Z,83.5
2019-03-25T01:17:07.573Z,83.3
2019-03-25T01:18:16.702Z,83.1
2019-03-25T01:19:10.395Z,83.4
2019-03-25T01:20:11.894Z,83.3
2019-03-25T01:21:13.352Z,83.2
2019-03-25T01:22:14.754Z,83.4
2019-03-25T01:23:16.142Z,82.6
2019-03-25T01:24:17.539Z,82.9
2019-03-25T01:25:18.977Z,83.1
2019-03-25T01:26:20.377Z,83.2
2019-03-25T01:27:21.862Z,83.2
2019-03-25T01:28:23.294Z,83.4
2019-03-25T01:29:24.707Z,83.3
2019-03-25T01:30:26.102Z,83.4
2019-03-25T01:31:27.532Z,82.8
2019-03-25T01:32:28.955Z,82.9
2019-03-25T01:33:30.415Z,82.7
2019-03-25T01:34:31.815Z,83.0
2019-03-25T01:35:33.389Z,82.6
2019-03-25T01:36:34.858Z,82.4
2019-03-25T01:37:36.291Z,82.5
2019-03-25T01:38:37.723Z,82.0
2019-03-25T01:39:39.110Z,82.0
2019-03-25T01:40:40.569Z,82.0
2019-03-25T01:41:41.964Z,82.1
2019-03-25T01:42:43.385Z,82.3
2019-03-25T01:43:44.833Z,82.1
2019-03-25T01:44:46.339Z,82.1
2019-03-25T01:45:47.749Z,82.2
2019-03-25T01:46:49.162Z,82.1
2019-03-25T01:47:50.583Z,81.6
2019-03-25T01:48:51.985Z,81.1
2019-03-25T01:49:53.378Z,81.2
2019-03-25T01:50:54.840Z,81.3
2019-03-25T01:51:56.327Z,80.9
2019-03-25T01:52:57.789Z,81.0
2019-03-25T01:53:59.192Z,81.9
2019-03-25T01:55:00.618Z,81.8
2019-03-25T01:56:01.968Z,82.2
2019-03-25T01:57:03.400Z,82.4
2019-03-25T01:58:04.849Z,82.2
2019-03-25T01:59:06.268Z,83.1
2019-03-25T02:00:07.716Z,82.6
2019-03-25T02:01:09.125Z,83.0
2019-03-25T02:02:10.544Z,83.0
2019-03-25T02:03:11.940Z,82.4
2019-03-25T02:04:13.339Z,82.4
2019-03-25T02:05:14.734Z,82.8
2019-03-25T02:06:16.173Z,81.9
2019-03-25T02:07:17.568Z,82.1
2019-03-25T02:08:18.971Z,82.1
2019-03-25T02:09:20.383Z,82.1
2019-03-25T02:10:21.821Z,83.1
2019-03-25T02:11:23.241Z,83.0
2019-03-25T02:12:24.669Z,82.9
2019-03-25T02:13:26.076Z,83.4
2019-03-25T02:14:27.476Z,83.0
2019-03-25T02:15:28.896Z,82.7
2019-03-25T02:16:30.311Z,83.3
2019-03-25T02:17:31.696Z,83.0
2019-03-25T02:18:33.132Z,83.8
2019-03-25T02:19:34.540Z,83.7
2019-03-25T02:20:35.957Z,83.7
2019-03-25T02:21:37.371Z,83.9
2019-03-25T02:22:38.952Z,83.4
2019-03-25T02:23:40.236Z,83.4
2019-03-25T02:24:41.718Z,83.1
2019-03-25T02:25:43.146Z,84.0
2019-03-25T02:26:44.524Z,84.4
2019-03-25T02:27:45.950Z,84.7
2019-03-25T02:28:47.361Z,84.9
2019-03-25T02:29:48.772Z,84.9
2019-03-25T02:30:50.184Z,85.2
2019-03-25T02:31:51.579Z,85.7
2019-03-25T02:32:53.016Z,85.3
2019-03-25T02:33:54.472Z,85.3
2019-03-25T02:34:55.901Z,85.6
2019-03-25T02:35:57.510Z,85.5
2019-03-25T02:36:59.019Z,85.6
2019-03-25T02:38:00.473Z,85.1
2019-03-25T02:39:01.870Z,85.2
2019-03-25T02:40:03.304Z,84.8
2019-03-25T02:41:04.785Z,85.2
2019-03-25T02:42:06.193Z,84.5
2019-03-25T02:43:07.661Z,84.8
2019-03-25T02:44:09.051Z,84.4
2019-03-25T02:45:10.438Z,84.7
2019-03-25T02:46:11.847Z,84.3
2019-03-25T02:47:13.279Z,84.7
2019-03-25T02:48:14.714Z,84.5
2019-03-25T02:49:16.152Z,85.0
2019-03-25T02:50:17.544Z,85.5
2019-03-25T02:51:18.970Z,84.9
2019-03-25T02:52:20.383Z,85.1
2019-03-25T02:53:21.825Z,84.7
2019-03-25T02:54:23.264Z,85.2
2019-03-25T02:55:39.901Z,85.3
2019-03-25T02:56:26.085Z,85.2
2019-03-25T02:57:27.518Z,85.1
2019-03-25T02:58:28.909Z,85.2
2019-03-25T02:59:30.324Z,85.2
2019-03-25T03:00:31.715Z,85.0
2019-03-25T03:01:33.146Z,85.5
2019-03-25T03:02:34.544Z,85.7
2019-03-25T03:03:35.996Z,85.7
2019-03-25T03:04:37.365Z,85.9
2019-03-25T03:05:38.843Z,85.7
2019-03-25T03:06:40.286Z,85.9
2019-03-25T03:07:41.683Z,85.7
2019-03-25T03:08:43.093Z,86.0
2019-03-25T03:09:44.516Z,86.2
2019-03-25T03:10:45.929Z,85.7
2019-03-25T03:11:47.326Z,85.9
2019-03-25T03:12:48.736Z,86.0
2019-03-25T03:13:50.293Z,85.9
2019-03-25T03:14:51.719Z,86.2
2019-03-25T03:15:53.130Z,86.6
2019-03-25T03:16:54.560Z,86.4
2019-03-25T03:17:55.977Z,86.4
2019-03-25T03:18:57.443Z,86.4
2019-03-25T03:19:58.884Z,86.7
2019-03-25T03:21:00.269Z,86.9
2019-03-25T03:22:01.697Z,86.6
2019-03-25T03:23:03.136Z,86.6
2019-03-25T03:24:04.529Z,87.2
2019-03-25T03:25:05.935Z,87.5
2019-03-25T03:26:07.341Z,87.6
2019-03-25T03:27:08.753Z,87.5
2019-03-25T03:28:10.238Z,87.8
2019-03-25T03:29:11.659Z,87.4
2019-03-25T03:30:13.140Z,88.0
2019-03-25T03:31:14.475Z,88.6
2019-03-25T03:32:15.892Z,88.1
2019-03-25T03:33:17.385Z,88.5
2019-03-25T03:34:18.768Z,88.4
2019-03-25T03:35:20.255Z,88.7
2019-03-25T03:36:21.615Z,88.6
2019-03-25T03:37:23.037Z,88.6
2019-03-25T03:38:24.461Z,88.6
2019-03-25T03:39:25.866Z,88.5
2019-03-25T03:40:27.317Z,89.1
2019-03-25T03:41:28.779Z,89.2
2019-03-25T03:42:30.230Z,89.1
2019-03-25T03:43:31.645Z,89.5
2019-03-25T03:44:33.080Z,89.1
2019-03-25T03:45:34.513Z,89.9
2019-03-25T03:46:35.965Z,90.3
2019-03-25T03:47:37.378Z,90.3
2019-03-25T03:48:38.838Z,90.7
2019-03-25T03:49:40.147Z,89.3
2019-03-25T03:50:41.577Z,89.6
2019-03-25T03:51:42.985Z,90.0
2019-03-25T03:52:44.402Z,89.7
2019-03-25T03:53:45.794Z,90.6
2019-03-25T03:54:47.241Z,90.2
2019-03-25T03:55:48.648Z,90.6
2019-03-25T03:56:50.059Z,90.6
2019-03-25T03:57:51.481Z,90.6
2019-03-25T03:58:52.888Z,90.8
2019-03-25T03:59:54.279Z,90.4
2019-03-25T04:00:55.705Z,90.6
2019-03-25T04:01:57.183Z,90.7
2019-03-25T04:02:58.657Z,90.7
2019-03-25T04:04:00.176Z,91.2
2019-03-25T04:05:01.616Z,91.1
2019-03-25T04:06:03.027Z,91.5
2019-03-25T04:07:04.414Z,91.3
2019-03-25T04:08:05.929Z,91.2
2019-03-25T04:09:07.319Z,91.9
2019-03-25T04:10:08.749Z,92.2
2019-03-25T04:11:10.145Z,92.7
2019-03-25T04:12:11.545Z,92.6
2019-03-25T04:13:12.964Z,92.6
2019-03-25T04:14:14.378Z,92.7
2019-03-25T04:15:15.814Z,92.8
2019-03-25T04:16:17.228Z,93.2
2019-03-25T04:17:18.634Z,92.7
2019-03-25T04:18:20.066Z,93.6
2019-03-25T04:19:21.532Z,93.8
2019-03-25T04:20:22.922Z,93.4
2019-03-25T04:21:24.313Z,94.1
2019-03-25T04:22:25.732Z,93.8
2019-03-25T04:23:27.134Z,94.2
2019-03-25T04:24:28.595Z,94.3
2019-03-25T04:25:30.012Z,94.2
2019-03-25T04:26:31.444Z,94.6
2019-03-25T04:27:32.890Z,94.7
2019-03-25T04:28:34.300Z,95.1
2019-03-25T04:29:35.706Z,95.5
2019-03-25T04:30:37.104Z,95.8
2019-03-25T04:31:38.507Z,95.6
2019-03-25T04:32:39.903Z,96.1
2019-03-25T04:33:41.304Z,96.2
2019-03-25T04:34:42.763Z,96.3
2019-03-25T04:35:44.188Z,95.9
2019-03-25T04:36:45.590Z,96.1
2019-03-25T04:37:46.980Z,96.4
2019-03-25T04:38:48.385Z,96.5
2019-03-25T04:39:49.797Z,96.2
2019-03-25T04:40:51.194Z,96.2
2019-03-25T04:41:52.577Z,95.9
2019-03-25T04:42:54.008Z,96.2
2019-03-25T04:43:55.486Z,96.2
2019-03-25T04:44:56.866Z,96.5
2019-03-25T04:45:58.331Z,96.7
2019-03-25T04:46:59.767Z,96.5
2019-03-25T04:48:01.181Z,97.0
2019-03-25T04:49:02.583Z,97.4
2019-03-25T04:50:04.032Z,97.5
2019-03-25T04:51:05.521Z,98.1
2019-03-25T04:52:07.074Z,97.6
2019-03-25T04:53:08.515Z,97.7
2019-03-25T04:54:09.989Z,98.3
2019-03-25T04:55:11.438Z,98.6
2019-03-25T04:56:12.839Z,98.7
2019-03-25T04:57:14.249Z,97.7
2019-03-25T04:58:15.679Z,98.5
2019-03-25T04:59:17.083Z,98.4
2019-03-25T05:00:18.503Z,98.6
2019-03-25T05:01:19.933Z,98.6
2019-03-25T05:02:21.329Z,98.7
2019-03-25T05:03:22.791Z,98.6
2019-03-25T05:04:24.186Z,98.1
2019-03-25T05:05:25.626Z,98.6
2019-03-25T05:06:27.076Z,98.9
2019-03-25T05:07:28.523Z,98.7
2019-03-25T05:08:29.964Z,99.1
2019-03-25T05:09:31.376Z,98.8
2019-03-25T05:10:32.832Z,98.9
2019-03-25T05:11:34.261Z,98.8
2019-03-25T05:12:35.671Z,98.9
2019-03-25T05:13:37.130Z,98.7
2019-03-25T05:14:38.564Z,99.7
2019-03-25T05:15:39.982Z,99.6
2019-03-25T05:16:41.412Z,99.7
2019-03-25T05:17:42.852Z,99.7
2019-03-25T05:18:44.300Z,98.8
2019-03-25T05:19:45.704Z,99.0
2019-03-25T05:20:47.169Z,99.0
2019-03-25T05:21:48.615Z,98.4
2019-03-25T05:22:50.011Z,99.1
2019-03-25T05:23:51.464Z,98.9
2019-03-25T05:24:53.010Z,98.2
2019-03-25T05:25:54.402Z,98.2
2019-03-25T05:26:55.937Z,98.4
2019-03-25T05:27:57.287Z,98.8
2019-03-25T05:28:58.698Z,99.1
2019-03-25T05:30:00.330Z,98.9
2019-03-25T05:31:01.629Z,98.8
2019-03-25T05:32:03.052Z,99.3
2019-03-25T05:33:04.456Z,99.8
2019-03-25T05:34:05.892Z,100.0
2019-03-25T05:35:07.301Z,100.0
2019-03-25T05:36:08.702Z,100.0
2019-03-25T05:37:10.096Z,100.0
2019-03-25T05:38:11.518Z,100.0
2019-03-25T05:39:12.959Z,100.0
2019-03-25T05:40:14.349Z,100.0
2019-03-25T05:41:15.761Z,100.0
2019-03-25T05:42:17.212Z,100.0
2019-03-25T05:43:20.951Z,100.0
2019-03-25T05:44:20.126Z,100.0
2019-03-25T05:45:21.530Z,100.0
2019-03-25T05:46:22.926Z,100.0
2019-03-25T05:47:24.315Z,100.0
2019-03-25T05:48:25.753Z,100.0
2019-03-25T05:49:27.159Z,100.0
2019-03-25T05:50:28.574Z,100.0
2019-03-25T05:51:30.005Z,100.0
2019-03-25T05:52:31.425Z,100.0
2019-03-25T05:53:32.841Z,100.0
2019-03-25T05:54:34.240Z,100.0
2019-03-25T05:55:35.631Z,100.0
2019-03-25T05:56:37.034Z,100.0
2019-03-25T05:57:38.421Z,100.0
2019-03-25T05:58:39.928Z,100.0
2019-03-25T05:59:41.329Z,100.0
2019-03-25T06:00:42.735Z,100.0
2019-03-25T06:01:44.292Z,100.0
2019-03-25T06:02:45.557Z,100.0
2019-03-25T06:03:47.047Z,100.0
2019-03-25T06:04:48.550Z,100.0
2019-03-25T06:05:49.941Z,100.0
2019-03-25T06:06:52.126Z,100.0
2019-03-25T06:07:52.883Z,100.0
2019-03-25T06:08:54.333Z,100.0
2019-03-25T06:09:55.738Z,100.0
2019-03-25T06:10:57.153Z,100.0
2019-03-25T06:11:58.554Z,100.0
2019-03-25T06:12:59.961Z,100.0
2019-03-25T06:14:01.525Z,100.0
2019-03-25T06:15:03.034Z,100.0
2019-03-25T06:16:04.420Z,100.0
2019-03-25T06:17:05.850Z,100.0
2019-03-25T06:18:07.326Z,100.0
2019-03-25T06:19:08.725Z,100.0
2019-03-25T06:20:10.133Z,100.0
2019-03-25T06:21:11.532Z,100.0
2019-03-25T06:22:12.932Z,100.0
2019-03-25T06:23:14.330Z,100.0
2019-03-25T06:24:15.802Z,100.0
2019-03-25T06:25:17.178Z,100.0
2019-03-25T06:26:18.568Z,100.0
2019-03-25T06:27:19.975Z,100.0
2019-03-25T06:28:21.396Z,100.0
2019-03-25T06:29:22.814Z,100.0
2019-03-25T06:30:24.204Z,100.0
2019-03-25T06:31:25.591Z,100.0
2019-03-25T06:32:26.984Z,100.0
2019-03-25T06:33:28.404Z,100.0
2019-03-25T06:34:29.793Z,100.0
2019-03-25T06:35:31.187Z,100.0
2019-03-25T06:36:32.583Z,100.0
2019-03-25T06:37:33.975Z,100.0
2019-03-25T06:38:35.377Z,100.0
2019-03-25T06:39:36.795Z,100.0
2019-03-25T06:40:38.210Z,100.0
2019-03-25T06:41:39.599Z,100.0
2019-03-25T06:42:41.156Z,100.0
2019-03-25T06:43:42.570Z,100.0
2019-03-25T06:44:43.997Z,100.0
2019-03-25T06:45:45.400Z,100.0
2019-03-25T06:46:46.806Z,100.0
2019-03-25T06:47:48.253Z,100.0
2019-03-25T06:48:49.679Z,100.0
2019-03-25T06:49:51.099Z,100.0
2019-03-25T06:50:52.500Z,100.0
2019-03-25T06:51:53.897Z,100.0
2019-03-25T06:52:55.290Z,100.0
2019-03-25T06:53:56.741Z,100.0
2019-03-25T06:54:58.132Z,100.0
2019-03-25T06:55:59.526Z,100.0
2019-03-25T06:57:00.985Z,100.0
2019-03-25T06:58:02.414Z,100.0
2019-03-25T06:59:03.953Z,100.0
2019-03-25T07:00:05.240Z,100.0
2019-03-25T07:01:06.635Z,100.0
2019-03-25T07:02:08.048Z,100.0
2019-03-25T07:03:09.439Z,100.0
2019-03-25T07:04:10.847Z,100.0
2019-03-25T07:05:12.253Z,100.0
2019-03-25T07:06:13.644Z,100.0
2019-03-25T07:07:15.057Z,100.0
2019-03-25T07:08:16.461Z,100.0
2019-03-25T07:09:18.697Z,100.0
2019-03-25T07:10:19.240Z,100.0
2019-03-25T07:11:20.628Z,100.0
2019-03-25T07:12:22.031Z,100.0
2019-03-25T07:13:23.443Z,100.0
2019-03-25T07:14:24.841Z,100.0
2019-03-25T07:15:26.249Z,100.0
2019-03-25T07:16:27.624Z,100.0
2019-03-25T07:17:29.126Z,100.0
2019-03-25T07:18:30.529Z,100.0
2019-03-25T07:19:31.923Z,100.0
2019-03-25T07:20:33.324Z,100.0
2019-03-25T07:21:34.722Z,100.0
2019-03-25T07:22:36.150Z,100.0
2019-03-25T07:23:37.587Z,100.0
2019-03-25T07:24:38.980Z,100.0
2019-03-25T07:25:40.410Z,100.0
2019-03-25T07:26:41.799Z,100.0
2019-03-25T07:27:43.209Z,100.0
2019-03-25T07:28:44.609Z,100.0
2019-03-25T07:29:46.033Z,100.0
2019-03-25T07:30:47.429Z,100.0
2019-03-25T07:31:48.834Z,99.7
2019-03-25T07:32:50.254Z,99.4
2019-03-25T07:33:51.670Z,100.0
2019-03-25T07:34:53.122Z,99.5
2019-03-25T07:35:54.524Z,99.8
2019-03-25T07:36:55.928Z,98.4
2019-03-25T07:37:57.365Z,98.8
2019-03-25T07:39:00.220Z,99.4
2019-03-25T07:40:00.258Z,99.4
2019-03-25T07:41:01.516Z,98.2
2019-03-25T07:42:02.917Z,97.8
2019-03-25T07:43:04.347Z,97.8
2019-03-25T07:44:05.737Z,96.6
2019-03-25T07:45:07.148Z,94.9
2019-03-25T07:46:08.587Z,96.1
2019-03-25T07:47:10.002Z,95.0
2019-03-25T07:48:11.400Z,93.9
2019-03-25T07:49:12.811Z,93.2
2019-03-25T07:50:14.222Z,93.8
2019-03-25T07:51:15.630Z,93.7
2019-03-25T07:52:17.055Z,93.4
2019-03-25T07:53:18.491Z,93.6
2019-03-25T07:54:19.933Z,94.4
2019-03-25T07:55:21.361Z,94.6
2019-03-25T07:56:22.737Z,93.8
2019-03-25T07:57:24.143Z,93.9
2019-03-25T07:58:25.569Z,94.9
2019-03-25T07:59:26.948Z,96.3
2019-03-25T08:00:28.438Z,97.2
2019-03-25T08:01:29.842Z,99.0
2019-03-25T08:02:31.251Z,100.0
2019-03-25T08:03:32.703Z,100.0
2019-03-25T08:04:34.166Z,100.0
2019-03-25T08:05:35.559Z,100.0
2019-03-25T08:06:37.184Z,100.0
2019-03-25T08:07:38.690Z,100.0
2019-03-25T08:08:40.099Z,100.0
2019-03-25T08:09:41.539Z,99.2
2019-03-25T08:10:43.059Z,99.3
2019-03-25T08:11:44.401Z,99.9
2019-03-25T08:12:45.818Z,98.1
2019-03-25T08:13:47.231Z,99.2
2019-03-25T08:14:48.613Z,99.4
2019-03-25T08:15:50.039Z,99.2
2019-03-25T08:16:51.444Z,97.4
2019-03-25T08:17:52.849Z,97.7
2019-03-25T08:18:54.306Z,98.2
2019-03-25T08:19:55.704Z,100.0
2019-03-25T08:20:57.106Z,99.4
2019-03-25T08:21:58.537Z,99.0
2019-03-25T08:22:59.963Z,97.3
2019-03-25T08:24:01.416Z,98.2
2019-03-25T08:25:02.833Z,98.1
2019-03-25T08:26:04.240Z,98.8
2019-03-25T08:27:05.651Z,97.2
2019-03-25T08:28:07.043Z,96.5
2019-03-25T08:29:08.443Z,98.5
2019-03-25T08:30:09.846Z,98.5
2019-03-25T08:31:11.261Z,97.6
2019-03-25T08:32:12.783Z,94.7
2019-03-25T08:33:14.183Z,92.8
2019-03-25T08:34:15.622Z,95.4
2019-03-25T08:35:17.014Z,96.9
2019-03-25T08:36:18.415Z,95.8
2019-03-25T08:37:19.851Z,94.4
2019-03-25T08:38:21.266Z,94.6
2019-03-25T08:39:22.666Z,91.3
2019-03-25T08:40:24.084Z,90.1
2019-03-25T08:41:25.484Z,90.6
2019-03-25T08:42:26.930Z,89.4
2019-03-25T08:43:28.378Z,87.9
2019-03-25T08:44:29.757Z,86.8
2019-03-25T08:45:31.165Z,86.5
2019-03-25T08:46:32.586Z,85.6
2019-03-25T08:47:34.004Z,86.0
2019-03-25T08:48:35.430Z,87.1
2019-03-25T08:49:36.886Z,86.9
2019-03-25T08:50:38.229Z,85.9
2019-03-25T08:51:39.694Z,85.8
2019-03-25T08:52:40.993Z,86.0
2019-03-25T08:53:42.387Z,85.5
2019-03-25T08:54:43.844Z,85.5
2019-03-25T08:55:45.354Z,86.8
2019-03-25T08:56:46.773Z,87.1
2019-03-25T08:57:48.171Z,88.2
2019-03-25T08:58:49.581Z,87.6
2019-03-25T08:59:51.010Z,87.9
2019-03-25T09:00:52.409Z,87.3
2019-03-25T09:01:53.859Z,87.5
2019-03-25T09:02:55.268Z,86.4
2019-03-25T09:03:56.699Z,84.8
2019-03-25T09:04:58.092Z,85.4
2019-03-25T09:05:59.654Z,85.2
2019-03-25T09:07:00.868Z,86.0
2019-03-25T09:08:02.280Z,85.3
2019-03-25T09:09:03.663Z,84.0
2019-03-25T09:10:05.061Z,81.8
2019-03-25T09:11:07.175Z,82.7
2019-03-25T09:12:07.827Z,84.0
2019-03-25T09:13:09.222Z,84.3
2019-03-25T09:14:10.617Z,84.8
2019-03-25T09:15:12.020Z,85.0
2019-03-25T09:16:13.416Z,86.5
2019-03-25T09:17:14.807Z,88.8
2019-03-25T09:18:16.215Z,86.4
2019-03-25T09:19:17.618Z,85.3
2019-03-25T09:20:19.040Z,85.9
2019-03-25T09:21:20.461Z,86.1
2019-03-25T09:22:21.845Z,85.8
2019-03-25T09:23:23.264Z,84.9
2019-03-25T09:24:24.689Z,84.9
2019-03-25T09:25:26.107Z,85.6
2019-03-25T09:26:27.518Z,85.6
2019-03-25T09:27:28.907Z,84.9
2019-03-25T09:28:30.335Z,84.3
2019-03-25T09:29:31.760Z,83.6
2019-03-25T09:30:33.157Z,83.9
2019-03-25T09:31:37.063Z,82.5
2019-03-25T09:32:35.924Z,81.7
2019-03-25T09:33:37.368Z,82.8
2019-03-25T09:34:38.751Z,81.2
2019-03-25T09:35:40.156Z,80.7
2019-03-25T09:36:41.551Z,80.5
2019-03-25T09:37:42.965Z,81.5
2019-03-25T09:38:44.377Z,84.2
2019-03-25T09:39:45.791Z,87.3
2019-03-25T09:40:47.558Z,93.4
2019-03-25T09:41:49.120Z,98.9
2019-03-25T09:42:50.941Z,100.0
2019-03-25T09:43:52.293Z,100.0
2019-03-25T09:44:53.727Z,100.0
2019-03-25T09:45:55.392Z,100.0
2019-03-25T09:46:56.945Z,100.0
2019-03-25T09:47:58.396Z,100.0
2019-03-25T09:48:59.899Z,100.0
2019-03-25T09:50:01.383Z,100.0
2019-03-25T09:51:03.618Z,100.0
2019-03-25T09:52:05.086Z,100.0
2019-03-25T09:53:06.589Z,100.0
2019-03-25T09:54:08.061Z,100.0
2019-03-25T09:55:09.469Z,100.0
2019-03-25T09:56:11.583Z,99.5
2019-03-25T09:57:13.042Z,98.8
2019-03-25T09:58:14.480Z,94.8
2019-03-25T09:59:15.927Z,94.8
2019-03-25T10:00:17.342Z,96.8
2019-03-25T10:01:18.758Z,94.7
2019-03-25T10:02:20.179Z,91.7
2019-03-25T10:03:21.582Z,90.4
2019-03-25T10:04:23.000Z,88.3
2019-03-25T10:05:24.397Z,90.0
2019-03-25T10:06:25.817Z,89.6
2019-03-25T10:07:28.402Z,89.3
2019-03-25T10:08:28.639Z,89.8
2019-03-25T10:09:30.033Z,89.6
2019-03-25T10:10:31.449Z,88.4
2019-03-25T10:11:32.851Z,88.3
2019-03-25T10:12:34.239Z,88.8
2019-03-25T10:13:35.668Z,89.8
2019-03-25T10:14:37.075Z,89.8
2019-03-25T10:15:38.492Z,88.3
2019-03-25T10:16:39.889Z,87.2
2019-03-25T10:17:41.308Z,86.7
2019-03-25T10:18:42.741Z,87.3
2019-03-25T10:19:44.148Z,88.5
2019-03-25T10:20:45.563Z,88.7
2019-03-25T10:21:47.001Z,86.7
2019-03-25T10:22:48.389Z,87.8
2019-03-25T10:23:49.816Z,87.0
2019-03-25T10:24:51.277Z,84.0
2019-03-25T10:25:52.758Z,81.8
2019-03-25T10:26:54.349Z,84.0
2019-03-25T10:27:55.744Z,82.7
2019-03-25T10:28:57.143Z,82.7
2019-03-25T10:29:58.611Z,82.9
2019-03-25T10:31:00.027Z,82.9
2019-03-25T10:32:01.426Z,83.9
2019-03-25T10:33:02.818Z,83.3
2019-03-25T10:34:04.226Z,84.2
2019-03-25T10:35:05.633Z,82.3
2019-03-25T10:36:07.026Z,81.0
2019-03-25T10:37:08.438Z,81.7
2019-03-25T10:38:19.068Z,81.6
2019-03-25T10:39:11.198Z,80.4
2019-03-25T10:40:12.597Z,82.2
2019-03-25T10:41:14.007Z,83.6
2019-03-25T10:42:15.398Z,82.2
2019-03-25T10:43:16.804Z,82.1
2019-03-25T10:44:18.197Z,82.0
2019-03-25T10:45:19.591Z,82.1
2019-03-25T10:46:20.992Z,82.7
2019-03-25T10:47:22.451Z,86.2
2019-03-25T10:48:23.886Z,92.5
2019-03-25T10:49:25.317Z,95.4
2019-03-25T10:50:26.709Z,95.5
2019-03-25T10:51:28.191Z,97.2
2019-03-25T10:52:29.625Z,98.8
2019-03-25T10:53:31.081Z,100.0
2019-03-25T10:54:32.560Z,100.0
2019-03-25T10:55:33.894Z,100.0
2019-03-25T10:56:35.350Z,100.0
2019-03-25T10:57:36.779Z,100.0
2019-03-25T10:58:38.214Z,100.0
2019-03-25T10:59:39.609Z,100.0
2019-03-25T11:00:41.057Z,100.0
2019-03-25T11:01:42.446Z,100.0
2019-03-25T11:02:43.871Z,100.0
2019-03-25T11:03:45.303Z,100.0
2019-03-25T11:04:46.724Z,100.0
2019-03-25T11:05:48.120Z,100.0
2019-03-25T11:06:49.594Z,100.0
2019-03-25T11:07:50.990Z,100.0
2019-03-25T11:08:52.386Z,97.2
2019-03-25T11:09:53.778Z,100.0
2019-03-25T11:10:55.218Z,96.5
2019-03-25T11:11:56.616Z,97.7
2019-03-25T11:12:58.011Z,96.7
2019-03-25T11:13:59.474Z,96.3
2019-03-25T11:15:00.894Z,90.8
2019-03-25T11:16:02.323Z,86.9
2019-03-25T11:17:03.728Z,84.7
2019-03-25T11:18:05.851Z,84.4
2019-03-25T11:19:06.512Z,83.9
2019-03-25T11:20:07.898Z,80.9
2019-03-25T11:21:09.291Z,78.4
2019-03-25T11:22:10.698Z,77.1
2019-03-25T11:23:12.106Z,77.1
2019-03-25T11:24:15.101Z,79.7
2019-03-25T11:25:14.867Z,80.9
2019-03-25T11:26:16.259Z,79.2
2019-03-25T11:27:17.655Z,81.6
2019-03-25T11:28:19.072Z,79.8
2019-03-25T11:29:20.463Z,81.1
2019-03-25T11:30:21.859Z,80.7
2019-03-25T11:31:23.250Z,77.6
2019-03-25T11:32:24.673Z,79.9
2019-03-25T11:33:26.069Z,81.9
2019-03-25T11:34:27.467Z,80.7
2019-03-25T11:35:28.874Z,79.8
2019-03-25T11:36:30.257Z,78.5
2019-03-25T11:37:31.673Z,80.8
2019-03-25T11:38:33.092Z,82.8
2019-03-25T11:39:34.476Z,86.1
2019-03-25T11:40:36.030Z,87.1
2019-03-25T11:41:37.428Z,88.3
2019-03-25T11:42:38.824Z,90.4
2019-03-25T11:43:40.230Z,89.7
2019-03-25T11:44:41.835Z,88.6
2019-03-25T11:45:43.241Z,88.4
2019-03-25T11:46:44.665Z,86.6
2019-03-25T11:47:46.091Z,85.8
2019-03-25T11:48:47.485Z,85.8
2019-03-25T11:49:48.893Z,85.5
2019-03-25T11:50:50.290Z,85.5
2019-03-25T11:51:51.791Z,83.8
2019-03-25T11:52:53.226Z,83.7
2019-03-25T11:53:54.659Z,83.2
2019-03-25T11:54:56.108Z,81.1
2019-03-25T11:55:57.521Z,80.4
2019-03-25T11:56:58.918Z,79.4
2019-03-25T11:58:00.314Z,78.5
2019-03-25T11:59:03.031Z,79.2
2019-03-25T12:00:03.090Z,75.7
2019-03-25T12:01:04.493Z,74.5
2019-03-25T12:02:05.993Z,75.1
2019-03-25T12:03:07.390Z,75.7
2019-03-25T12:04:10.484Z,73.7
2019-03-25T12:05:10.170Z,71.3
2019-03-25T12:06:11.582Z,71.2
2019-03-25T12:07:12.986Z,70.1
2019-03-25T12:08:14.382Z,70.7
2019-03-25T12:09:15.784Z,70.6
2019-03-25T12:10:17.191Z,69.8
2019-03-25T12:11:18.591Z,69.3
2019-03-25T12:12:20.008Z,69.8
2019-03-25T12:13:21.404Z,71.2
2019-03-25T12:14:22.811Z,71.0
2019-03-25T12:15:24.217Z,71.3
2019-03-25T12:16:25.623Z,73.4
2019-03-25T12:17:27.038Z,74.6
2019-03-25T12:18:28.446Z,78.2
2019-03-25T12:19:29.863Z,82.7
2019-03-25T12:20:31.273Z,84.5
2019-03-25T12:21:32.777Z,86.8
2019-03-25T12:22:34.220Z,89.4
2019-03-25T12:23:35.623Z,91.1
2019-03-25T12:24:37.100Z,93.5
2019-03-25T12:25:38.580Z,95.7
2019-03-25T12:26:39.983Z,97.0
2019-03-25T12:27:41.395Z,95.5
2019-03-25T12:28:42.810Z,94.9
2019-03-25T12:29:44.221Z,96.7
2019-03-25T12:30:45.615Z,96.3
2019-03-25T12:31:47.024Z,93.7
2019-03-25T12:32:48.429Z,94.7
2019-03-25T12:33:49.884Z,92.1
2019-03-25T12:34:51.282Z,88.5
2019-03-25T12:35:52.739Z,87.9
2019-03-25T12:36:54.151Z,86.9
2019-03-25T12:37:55.544Z,86.6
2019-03-25T12:38:56.941Z,85.5
2019-03-25T12:39:58.341Z,86.2
2019-03-25T12:40:59.741Z,85.3
2019-03-25T12:42:01.148Z,86.9
2019-03-25T12:43:02.538Z,86.0
2019-03-25T12:44:03.976Z,87.4
2019-03-25T12:45:05.381Z,86.0
2019-03-25T12:46:06.763Z,84.5
2019-03-25T12:47:08.167Z,82.0
2019-03-25T12:48:09.561Z,78.9
2019-03-25T12:49:10.960Z,79.2
2019-03-25T12:50:12.462Z,79.0
2019-03-25T12:51:13.865Z,77.4
2019-03-25T12:52:15.262Z,76.5
2019-03-25T12:53:16.686Z,77.1
2019-03-25T12:54:18.083Z,78.5
2019-03-25T12:55:19.477Z,76.9
2019-03-25T12:56:20.882Z,76.9
2019-03-25T12:57:22.277Z,77.5
2019-03-25T12:58:23.674Z,77.7
2019-03-25T12:59:25.064Z,77.9
2019-03-25T13:00:26.468Z,76.6
2019-03-25T13:01:27.862Z,74.3
2019-03-25T13:02:29.286Z,73.0
2019-03-25T13:03:30.693Z,74.0
2019-03-25T13:04:32.135Z,74.2
2019-03-25T13:05:33.534Z,74.2
2019-03-25T13:06:34.931Z,74.5
2019-03-25T13:07:36.329Z,75.0
2019-03-25T13:08:37.733Z,75.7
2019-03-25T13:09:39.133Z,77.5
2019-03-25T13:10:40.527Z,79.0
2019-03-25T13:11:41.999Z,84.4
2019-03-25T13:12:43.392Z,89.2
2019-03-25T13:13:44.903Z,94.0
2019-03-25T13:14:46.302Z,97.4
2019-03-25T13:15:47.795Z,100.0
2019-03-25T13:16:49.210Z,100.0
2019-03-25T13:17:50.627Z,100.0
2019-03-25T13:18:52.054Z,100.0
2019-03-25T13:19:53.488Z,100.0
2019-03-25T13:20:54.920Z,100.0
2019-03-25T13:21:56.334Z,100.0
2019-03-25T13:22:57.774Z,100.0
2019-03-25T13:23:59.205Z,100.0
2019-03-25T13:25:00.630Z,100.0
2019-03-25T13:26:02.154Z,100.0
2019-03-25T13:27:03.568Z,100.0
2019-03-25T13:28:04.998Z,100.0
2019-03-25T13:29:06.456Z,100.0
2019-03-25T13:30:07.944Z,100.0
2019-03-25T13:31:09.363Z,100.0